Time;durP1;ratioP1;P1;durP2;ratioP2;P2;SDS_P1;SDS_P2;PMS_P1;PMS_P2;Temp;Humidity;BMP_temperature;BMP_pressure;BME280_temperature;BME280_humidity;BME280_pressure;Samples;Min_cycle;Max_cycle;Signal;HPM_P1;HPM_P2
2023/09/14 15:08:07;;;;;;;0.57;0.57;;;;;;;;;;7390817;19;20364;-87
2023/09/14 15:11:03;;;;;;;0.95;0.75;;;;;;;;;;7391915;19;20689;-87
2023/09/14 15:17:30;;;;;;;0.77;0.77;;;;;;;;;;7392072;19;20968;-88
2023/09/14 15:19:57;;;;;;;0.60;0.60;;;;;;;;;;7392136;19;21167;-90
2023/09/14 15:22:23;;;;;;;0.63;0.63;;;;;;;;;;7391558;19;20361;-89
2023/09/14 15:24:50;;;;;;;0.95;0.95;;;;;;;;;;7391044;19;20385;-90
2023/09/14 15:27:17;;;;;;;0.50;0.50;;;;;;;;;;7394212;19;20388;-89
2023/09/14 15:29:44;;;;;;;0.43;0.43;;;;;;;;;;7395620;19;20360;-89
2023/09/14 15:32:11;;;;;;;0.60;0.60;;;;;;;;;;7393829;19;20361;-90
2023/09/14 15:34:37;;;;;;;0.70;0.70;;;;;;;;;;7388680;19;20952;-91
2023/09/14 15:37:05;;;;;;;0.50;0.50;;;;;;;;;;7391165;19;20344;-89
2023/09/14 15:39:31;;;;;;;0.60;0.60;;;;;;;;;;7396047;19;20368;-91
2023/09/14 15:41:58;;;;;;;0.80;0.80;;;;;;;;;;7390557;19;20349;-90
2023/09/14 15:44:25;;;;;;;0.60;0.60;;;;;;;;;;7390498;19;20362;-93
2023/09/14 15:46:52;;;;;;;0.55;0.55;;;;;;;;;;7388220;19;20755;-90
2023/09/14 15:49:19;;;;;;;0.52;0.52;;;;;;;;;;7389109;19;20723;-93
2023/09/14 15:51:45;;;;;;;0.70;0.70;;;;;;;;;;7390927;19;20362;-89
2023/09/14 15:54:15;;;;;;;0.90;0.90;;;;;;;;;;7390424;19;20405;-90
2023/09/14 15:56:42;;;;;;;0.50;0.50;;;;;;;;;;7395154;19;20443;-90
2023/09/14 15:59:10;;;;;;;1.67;1.00;;;;;;;;;;7393898;19;20348;-89
2023/09/14 16:01:37;;;;;;;0.60;0.60;;;;;;;;;;7392242;19;20381;-90
2023/09/14 16:04:04;;;;;;;0.70;0.70;;;;;;;;;;7385674;19;20888;-90
2023/09/14 16:06:31;;;;;;;0.60;0.60;;;;;;;;;;7389827;19;20355;-92
2023/09/14 16:08:58;;;;;;;0.60;0.60;;;;;;;;;;7394219;19;20340;-90
2023/09/14 16:11:25;;;;;;;0.90;0.90;;;;;;;;;;7403058;19;20884;-89
2023/09/14 16:13:52;;;;;;;1.95;1.20;;;;;;;;;;7399793;19;20412;-90
2023/09/14 16:16:19;;;;;;;0.70;0.70;;;;;;;;;;7399591;19;20376;-88
2023/09/14 16:18:46;;;;;;;0.60;0.60;;;;;;;;;;7401471;19;20697;-90
2023/09/14 16:21:14;;;;;;;0.50;0.50;;;;;;;;;;7402585;19;20408;-89
2023/09/14 16:23:40;;;;;;;0.88;0.88;;;;;;;;;;7398131;19;20364;-89
2023/09/14 16:26:08;;;;;;;0.63;0.63;;;;;;;;;;7402741;19;20337;-90
2023/09/14 16:28:35;;;;;;;0.50;0.50;;;;;;;;;;7400778;19;20357;-90
2023/09/14 16:31:01;;;;;;;0.40;0.40;;;;;;;;;;7399794;19;20369;-89
2023/09/14 16:33:28;;;;;;;0.90;0.90;;;;;;;;;;7401066;19;20363;-88
2023/09/14 16:35:56;;;;;;;0.60;0.60;;;;;;;;;;7395761;19;20381;-88
2023/09/14 16:38:24;;;;;;;0.60;0.60;;;;;;;;;;7398392;19;20369;-88
2023/09/14 16:40:50;;;;;;;1.00;1.00;;;;;;;;;;7395366;19;20917;-88
2023/09/14 16:43:19;;;;;;;0.63;0.63;;;;;;;;;;7398701;19;20428;-88
2023/09/14 16:45:47;;;;;;;0.80;0.80;;;;;;;;;;7397193;19;20951;-87
2023/09/14 16:48:14;;;;;;;0.70;0.70;;;;;;;;;;7399060;19;20328;-88
2023/09/14 16:50:41;;;;;;;0.60;0.60;;;;;;;;;;7400559;19;20355;-88
2023/09/14 16:53:10;;;;;;;0.70;0.70;;;;;;;;;;7396670;19;20359;-89
2023/09/14 16:55:37;;;;;;;1.40;1.00;;;;;;;;;;7397725;19;20958;-88
2023/09/14 16:58:04;;;;;;;0.57;0.57;;;;;;;;;;7398702;19;20391;-89
2023/09/14 17:00:31;;;;;;;;;;;;;;;;;;7397426;19;20025;-90
2023/09/14 17:02:59;;;;;;;;;;;;;;;;;;7396509;19;19936;-90
